Time;durP1;ratioP1;P1;durP2;ratioP2;P2;SDS_P1;SDS_P2;PMS_P1;PMS_P2;Temp;Humidity;BMP_temperature;BMP_pressure;BME280_temperature;BME280_humidity;BME280_pressure;Samples;Min_cycle;Max_cycle;Signal;HPM_P1;HPM_P2
2023/08/15 00:01:29;;;;;;;7.97;4.62;;;20.00;99.90;;;;;;7271604;32;20158;-55
2023/08/15 00:05:30;;;;;;;6.03;3.97;;;19.90;99.90;;;;;;7274337;32;20522;-56
2023/08/15 00:09:32;;;;;;;8.38;4.87;;;19.90;99.90;;;;;;7269016;32;20234;-56
2023/08/15 00:13:34;;;;;;;6.62;4.28;;;19.90;99.90;;;;;;7274122;32;20521;-57
2023/08/15 00:17:36;;;;;;;5.00;4.28;;;19.90;99.90;;;;;;7268193;32;20588;-56
2023/08/15 00:21:38;;;;;;;5.40;4.68;;;19.90;99.90;;;;;;7275020;32;20340;-56
2023/08/15 00:25:39;;;;;;;12.20;5.37;;;19.80;99.90;;;;;;7278649;32;20471;-56
2023/08/15 00:29:41;;;;;;;5.65;3.70;;;19.80;99.90;;;;;;7265996;32;20605;-56
2023/08/15 00:33:43;;;;;;;11.23;4.10;;;19.70;99.90;;;;;;7269989;32;20487;-55
2023/08/15 00:37:44;;;;;;;5.57;4.47;;;19.60;99.90;;;;;;7272217;32;20109;-56
2023/08/15 00:41:46;;;;;;;5.22;4.20;;;19.60;99.90;;;;;;7271314;32;20227;-57
2023/08/15 00:45:48;;;;;;;6.28;4.65;;;19.50;99.90;;;;;;7274057;32;20628;-56
2023/08/15 00:49:52;;;;;;;4.43;4.03;;;19.50;99.90;;;;;;7271370;32;20165;-55
2023/08/15 00:53:54;;;;;;;5.45;4.57;;;19.40;99.90;;;;;;7271890;32;20101;-56
2023/08/15 00:57:56;;;;;;;7.00;4.57;;;19.40;99.90;;;;;;7278437;32;20096;-56
2023/08/15 01:01:59;;;;;;;8.82;5.00;;;19.50;99.90;;;;;;7269977;32;20177;-56
2023/08/15 01:06:01;;;;;;;7.65;4.87;;;19.50;99.90;;;;;;7282490;32;20540;-55
2023/08/15 01:10:03;;;;;;;7.57;4.90;;;19.50;99.90;;;;;;7276130;32;20104;-55
2023/08/15 01:14:11;;;;;;;8.85;5.28;;;19.50;99.90;;;;;;7269721;32;20789;-56
2023/08/15 01:18:16;;;;;;;6.45;4.85;;;19.60;99.90;;;;;;7266549;32;20573;-55
2023/08/15 01:22:27;;;;;;;7.18;5.10;;;19.50;99.90;;;;;;7274905;32;20187;-56
2023/08/15 01:26:28;;;;;;;7.65;5.05;;;19.60;99.90;;;;;;7274868;32;20541;-55
2023/08/15 01:30:30;;;;;;;7.40;5.18;;;19.60;99.90;;;;;;7275797;32;20108;-55
2023/08/15 01:34:37;;;;;;;8.25;5.93;;;19.60;99.90;;;;;;7278386;32;20526;-56
2023/08/15 01:38:41;;;;;;;;;;;19.60;99.90;;;;;;7270209;32;20114;-56
2023/08/15 01:42:45;;;;;;;8.07;5.45;;;19.60;99.90;;;;;;7274030;32;20054;-55
2023/08/15 01:46:47;;;;;;;7.00;5.47;;;19.50;99.90;;;;;;7276871;32;20100;-55
2023/08/15 01:50:48;;;;;;;6.40;5.55;;;19.50;99.90;;;;;;7273415;32;20733;-56
2023/08/15 01:54:50;;;;;;;7.32;5.25;;;19.50;99.90;;;;;;7283797;32;20585;-56
2023/08/15 01:58:52;;;;;;;7.85;5.03;;;19.50;99.90;;;;;;7271548;32;20582;-56
2023/08/15 02:02:53;;;;;;;7.00;5.37;;;19.50;99.90;;;;;;7267770;32;20239;-55
2023/08/15 02:06:55;;;;;;;8.05;5.05;;;19.50;99.90;;;;;;7266633;32;20215;-55
2023/08/15 02:10:57;;;;;;;8.88;5.22;;;19.60;99.90;;;;;;7271899;32;20745;-55
2023/08/15 02:14:59;;;;;;;6.65;5.32;;;19.60;99.90;;;;;;7275685;32;20352;-56
2023/08/15 02:19:00;;;;;;;7.15;5.10;;;19.60;99.90;;;;;;7268744;32;20089;-57
2023/08/15 02:23:02;;;;;;;8.10;4.82;;;19.70;99.90;;;;;;7271137;32;20116;-54
2023/08/15 02:27:04;;;;;;;7.62;4.37;;;19.90;99.90;;;;;;7271159;32;20205;-56
2023/08/15 02:31:06;;;;;;;5.87;4.22;;;20.00;99.90;;;;;;7270866;32;20825;-56
2023/08/15 02:35:08;;;;;;;5.53;4.30;;;20.00;99.90;;;;;;7269176;32;20434;-55
2023/08/15 02:39:10;;;;;;;4.60;3.83;;;20.10;99.90;;;;;;7272424;32;20100;-55
2023/08/15 02:43:12;;;;;;;7.40;3.80;;;20.10;99.90;;;;;;7270635;32;20131;-55
2023/08/15 02:47:14;;;;;;;6.68;4.47;;;20.20;99.90;;;;;;7266184;32;20529;-55
2023/08/15 02:51:15;;;;;;;6.12;4.55;;;20.30;99.90;;;;;;7269811;32;20254;-55
2023/08/15 02:55:17;;;;;;;7.28;5.05;;;20.40;99.90;;;;;;7284125;32;20668;-55
2023/08/15 02:59:19;;;;;;;8.98;5.30;;;20.30;99.90;;;;;;7271680;32;20223;-55
2023/08/15 03:03:21;;;;;;;6.70;5.70;;;20.30;99.90;;;;;;7262314;32;20137;-55
2023/08/15 03:07:24;;;;;;;7.68;5.82;;;20.30;99.90;;;;;;7272773;32;20521;-55
2023/08/15 03:11:26;;;;;;;7.18;5.93;;;20.20;99.90;;;;;;7271434;32;20397;-56
2023/08/15 03:15:27;;;;;;;10.48;6.70;;;20.20;99.90;;;;;;7268180;32;20109;-55
2023/08/15 03:19:30;;;;;;;11.27;6.18;;;20.20;99.90;;;;;;7273003;32;20252;-55
2023/08/15 03:23:32;;;;;;;9.32;6.18;;;20.20;99.90;;;;;;7274951;32;20112;-55
2023/08/15 03:27:33;;;;;;;8.35;6.25;;;20.20;99.90;;;;;;7275630;32;20177;-57
2023/08/15 03:31:35;;;;;;;11.23;7.35;;;20.20;99.90;;;;;;7272099;32;20233;-56
2023/08/15 03:35:44;;;;;;;10.73;6.00;;;20.20;99.90;;;;;;7264582;32;20158;-56
2023/08/15 03:39:46;;;;;;;7.90;5.53;;;20.20;99.90;;;;;;7263957;32;20553;-56
2023/08/15 03:43:48;;;;;;;8.15;6.72;;;20.10;99.90;;;;;;7264011;32;20097;-56
2023/08/15 03:47:49;;;;;;;9.63;6.97;;;20.00;99.90;;;;;;7274604;32;20263;-55
2023/08/15 03:51:51;;;;;;;10.73;6.40;;;20.00;99.90;;;;;;7257922;32;20213;-56
2023/08/15 03:55:54;;;;;;;10.95;6.62;;;19.90;99.90;;;;;;7270248;32;20123;-56
2023/08/15 03:59:56;;;;;;;8.85;6.00;;;19.90;99.90;;;;;;7278165;32;20108;-56
2023/08/15 04:03:57;;;;;;;7.05;5.85;;;19.90;99.90;;;;;;7270546;32;20104;-56
2023/08/15 04:07:59;;;;;;;11.48;6.57;;;19.90;99.90;;;;;;7268719;32;20212;-56
2023/08/15 04:12:01;;;;;;;13.88;5.85;;;19.80;99.90;;;;;;7271702;32;20173;-56
2023/08/15 04:16:03;;;;;;;7.22;5.50;;;19.70;99.90;;;;;;7268874;32;20108;-56
2023/08/15 04:20:05;;;;;;;6.78;5.53;;;19.50;99.90;;;;;;7271972;32;20434;-56
2023/08/15 04:24:07;;;;;;;9.73;5.22;;;19.50;99.90;;;;;;7267743;32;20108;-56
2023/08/15 04:28:09;;;;;;;8.18;5.37;;;19.40;99.90;;;;;;7270111;32;20154;-56
2023/08/15 04:32:10;;;;;;;9.63;5.78;;;19.40;99.90;;;;;;7279072;32;20517;-56
2023/08/15 04:36:12;;;;;;;9.52;4.93;;;19.20;99.90;;;;;;7271219;32;20101;-56
2023/08/15 04:40:14;;;;;;;9.02;5.18;;;19.20;99.90;;;;;;7269027;32;20195;-57
2023/08/15 04:44:16;;;;;;;16.27;5.80;;;19.20;99.90;;;;;;7266873;32;20221;-56
2023/08/15 04:48:17;;;;;;;8.85;4.53;;;19.20;99.90;;;;;;7274880;32;20171;-57
2023/08/15 04:52:19;;;;;;;8.60;5.03;;;19.20;99.90;;;;;;7269990;32;20108;-57
2023/08/15 04:56:22;;;;;;;12.95;5.40;;;19.10;99.90;;;;;;7273275;32;20136;-58
2023/08/15 05:00:23;;;;;;;13.15;6.07;;;19.20;99.90;;;;;;7279397;32;20105;-56
2023/08/15 05:04:25;;;;;;;8.95;5.95;;;19.10;99.90;;;;;;7259207;32;20281;-56
2023/08/15 05:08:27;;;;;;;11.65;6.40;;;19.20;99.90;;;;;;7264939;32;20809;-57
2023/08/15 05:12:29;;;;;;;11.20;6.82;;;19.30;99.90;;;;;;7274693;32;20471;-57
2023/08/15 05:16:31;;;;;;;9.98;5.80;;;19.20;99.90;;;;;;7275681;32;20568;-56
2023/08/15 05:20:34;;;;;;;9.68;5.35;;;19.20;99.90;;;;;;7274053;32;20157;-57
2023/08/15 05:24:35;;;;;;;8.00;5.90;;;19.30;99.90;;;;;;7272475;32;20127;-56
2023/08/15 05:28:37;;;;;;;12.75;5.90;;;19.30;99.90;;;;;;7274091;32;20547;-56
2023/08/15 05:32:39;;;;;;;10.88;6.40;;;19.40;99.90;;;;;;7275262;32;20305;-56
2023/08/15 05:36:41;;;;;;;9.55;6.12;;;19.40;99.90;;;;;;7269464;32;20509;-57
2023/08/15 05:40:42;;;;;;;8.25;5.78;;;19.40;99.90;;;;;;7270100;32;20470;-56
2023/08/15 05:44:45;;;;;;;9.10;6.53;;;19.40;99.90;;;;;;7272459;32;20259;-58
2023/08/15 05:48:47;;;;;;;9.43;6.47;;;19.40;99.90;;;;;;7270254;32;20104;-57
2023/08/15 05:52:50;;;;;;;10.82;6.60;;;19.50;99.90;;;;;;7272403;32;21584;-56
2023/08/15 05:56:51;;;;;;;10.50;6.43;;;19.50;99.90;;;;;;7275870;32;20220;-56
2023/08/15 06:00:54;;;;;;;10.52;6.68;;;19.60;99.90;;;;;;7266561;32;20166;-57
2023/08/15 06:04:57;;;;;;;9.07;6.90;;;19.70;99.90;;;;;;7269417;32;20157;-57
2023/08/15 06:08:58;;;;;;;8.93;7.10;;;19.70;99.90;;;;;;7271384;32;20183;-56
2023/08/15 06:13:00;;;;;;;10.73;7.22;;;19.80;99.90;;;;;;7270910;32;20232;-58
2023/08/15 06:17:02;;;;;;;9.93;6.40;;;19.80;99.90;;;;;;7267776;32;20203;-57
2023/08/15 06:21:04;;;;;;;8.48;6.97;;;19.80;99.90;;;;;;7269881;32;20486;-57
2023/08/15 06:25:07;;;;;;;9.88;6.60;;;19.80;99.90;;;;;;7274904;32;20477;-57
2023/08/15 06:29:08;;;;;;;10.77;7.30;;;19.70;99.90;;;;;;7272547;32;20123;-57
2023/08/15 06:33:10;;;;;;;13.52;8.23;;;19.80;99.90;;;;;;7272533;32;20139;-58
2023/08/15 06:37:12;;;;;;;12.20;6.10;;;19.80;99.90;;;;;;7266263;32;20221;-57
2023/08/15 06:41:13;;;;;;;6.97;4.35;;;19.70;99.90;;;;;;7269450;32;20458;-56
2023/08/15 06:45:16;;;;;;;6.12;3.78;;;19.50;99.90;;;;;;7272023;32;20883;-56
2023/08/15 06:49:18;;;;;;;9.30;3.75;;;19.20;99.90;;;;;;7271803;32;20682;-56
2023/08/15 06:53:19;;;;;;;6.28;3.17;;;19.30;99.90;;;;;;7276570;32;20246;-56
2023/08/15 06:57:21;;;;;;;7.03;3.50;;;19.30;99.90;;;;;;7264909;32;20181;-56
2023/08/15 07:01:24;;;;;;;9.32;3.47;;;19.20;99.90;;;;;;7266701;32;20214;-56
2023/08/15 07:05:25;;;;;;;5.87;2.87;;;19.10;99.90;;;;;;7271701;32;20562;-57
2023/08/15 07:09:28;;;;;;;11.00;3.62;;;19.00;99.90;;;;;;7275632;32;20841;-56
2023/08/15 07:13:30;;;;;;;5.00;3.10;;;18.90;99.90;;;;;;7263008;32;20561;-56
2023/08/15 07:17:31;;;;;;;7.05;3.53;;;18.90;99.90;;;;;;7270776;32;20113;-56
2023/08/15 07:21:33;;;;;;;5.62;3.55;;;18.90;99.90;;;;;;7268206;32;20132;-56
2023/08/15 07:25:40;;;;;;;6.85;3.00;;;18.90;99.90;;;;;;7268077;32;20259;-56
2023/08/15 07:29:42;;;;;;;7.80;3.55;;;19.00;99.90;;;;;;7265031;32;20495;-56
2023/08/15 07:33:43;;;;;;;7.95;3.42;;;19.00;99.90;;;;;;7266049;32;20439;-57
2023/08/15 07:37:45;;;;;;;8.52;3.47;;;19.10;99.90;;;;;;7269584;32;20116;-58
2023/08/15 07:41:47;;;;;;;9.35;3.62;;;19.20;99.90;;;;;;7251343;32;20356;-58
2023/08/15 07:45:48;;;;;;;7.03;2.78;;;19.40;99.90;;;;;;7258079;32;20176;-58
2023/08/15 07:50:26;;;;;;;5.60;2.55;;;19.50;99.90;;;;;;7256667;32;20132;-58
2023/08/15 07:54:27;;;;;;;6.70;2.95;;;19.70;99.90;;;;;;7256364;32;20221;-56
2023/08/15 07:58:31;;;;;;;7.25;2.80;;;19.70;99.90;;;;;;7259797;32;20278;-56
2023/08/15 08:02:33;;;;;;;5.90;2.50;;;19.90;99.90;;;;;;7258317;32;20259;-56
2023/08/15 08:06:35;;;;;;;4.35;2.30;;;20.00;99.90;;;;;;7259854;32;20226;-57
2023/08/15 08:10:42;;;;;;;5.95;2.50;;;20.20;99.90;;;;;;7262398;32;20256;-57
2023/08/15 08:14:43;;;;;;;6.75;2.55;;;20.50;99.90;;;;;;7260367;32;20180;-57
2023/08/15 08:18:58;;;;;;;6.82;2.62;;;20.60;99.90;;;;;;7261657;32;20188;-57
2023/08/15 08:22:59;;;;;;;8.35;3.17;;;20.70;99.90;;;;;;7257704;32;20245;-57
2023/08/15 08:27:01;;;;;;;8.05;2.80;;;20.90;99.90;;;;;;7263872;32;20190;-57
2023/08/15 08:31:03;;;;;;;8.60;3.33;;;21.20;99.90;;;;;;7261170;32;20199;-57
2023/08/15 08:35:05;;;;;;;8.55;3.22;;;21.30;99.90;;;;;;7257736;32;20501;-57
2023/08/15 08:39:07;;;;;;;7.65;2.70;;;21.50;99.90;;;;;;7260748;32;20108;-57
2023/08/15 08:43:22;;;;;;;8.70;2.85;;;21.80;99.90;;;;;;7272998;32;20100;-57
2023/08/15 08:47:26;;;;;;;5.15;2.30;;;22.30;99.90;;;;;;7273093;32;20101;-58
2023/08/15 08:51:28;;;;;;;4.80;2.03;;;22.90;99.90;;;;;;7268776;32;20130;-57
2023/08/15 08:55:31;;;;;;;4.97;1.80;;;24.70;99.90;;;;;;7271997;32;20191;-57
2023/08/15 08:59:38;;;;;;;3.60;1.92;;;25.60;99.90;;;;;;7270781;32;20195;-57
2023/08/15 09:03:40;;;;;;;5.00;1.70;;;25.60;99.90;;;;;;7266276;32;20121;-57
2023/08/15 09:07:42;;;;;;;4.97;1.98;;;25.80;99.90;;;;;;7261232;32;20409;-56
2023/08/15 09:11:46;;;;;;;4.47;2.10;;;26.40;99.90;;;;;;7271054;32;20119;-57
2023/08/15 09:15:49;;;;;;;4.10;2.12;;;26.50;99.90;;;;;;7269124;32;20217;-57
2023/08/15 09:19:50;;;;;;;6.68;1.95;;;26.70;99.90;;;;;;7273249;32;20253;-57
2023/08/15 09:23:52;;;;;;;3.47;1.95;;;27.20;99.90;;;;;;7270428;32;20223;-56
2023/08/15 09:27:54;;;;;;;4.45;1.80;;;26.50;99.90;;;;;;7267923;32;20192;-57
2023/08/15 09:31:57;;;;;;;4.47;1.73;;;26.20;99.90;;;;;;7274332;32;20183;-57
2023/08/15 09:35:59;;;;;;;4.30;1.80;;;26.40;99.90;;;;;;7269929;32;20310;-57
2023/08/15 09:40:01;;;;;;;3.20;1.80;;;26.00;99.90;;;;;;7281158;32;20235;-56
2023/08/15 09:44:03;;;;;;;6.95;1.90;;;25.80;99.90;;;;;;7267157;32;20124;-56
2023/08/15 09:48:05;;;;;;;6.03;1.70;;;25.80;99.90;;;;;;7271763;32;20100;-58
2023/08/15 09:52:10;;;;;;;4.53;1.65;;;26.20;99.90;;;;;;7267638;32;20206;-56
2023/08/15 09:56:13;;;;;;;4.10;1.58;;;27.20;99.90;;;;;;7272533;32;20589;-57
2023/08/15 10:00:16;;;;;;;5.10;1.42;;;27.10;99.90;;;;;;7275575;32;20469;-57
2023/08/15 10:04:19;;;;;;;5.60;1.27;;;27.80;99.90;;;;;;7276377;32;20165;-58
2023/08/15 10:08:23;;;;;;;3.75;1.23;;;28.00;99.90;;;;;;7274327;32;20616;-57
2023/08/15 10:12:26;;;;;;;4.65;1.25;;;28.30;99.90;;;;;;7271583;32;20095;-57
2023/08/15 10:16:28;;;;;;;3.40;1.10;;;28.30;99.90;;;;;;7268058;32;20127;-56
2023/08/15 10:20:36;;;;;;;3.67;1.50;;;28.60;99.90;;;;;;7272802;32;20175;-58
2023/08/15 10:24:37;;;;;;;5.12;1.40;;;28.50;99.90;;;;;;7269024;32;20119;-57
2023/08/15 10:28:40;;;;;;;3.78;1.58;;;28.00;99.90;;;;;;7270215;32;20265;-56
2023/08/15 10:32:41;;;;;;;2.70;1.08;;;27.80;99.90;;;;;;7268293;32;20270;-58
2023/08/15 10:36:45;;;;;;;3.78;1.40;;;27.80;99.90;;;;;;7267278;32;20100;-57
2023/08/15 10:40:48;;;;;;;4.20;1.30;;;28.00;99.90;;;;;;7268169;32;20096;-56
2023/08/15 10:44:59;;;;;;;3.95;1.27;;;27.60;99.90;;;;;;7268065;32;20175;-56
2023/08/15 10:49:08;;;;;;;3.92;1.30;;;27.70;99.90;;;;;;7272861;32;20519;-55
2023/08/15 10:53:11;;;;;;;3.15;1.40;;;27.60;99.90;;;;;;7267864;32;20131;-57
2023/08/15 10:57:12;;;;;;;4.22;1.15;;;27.40;99.90;;;;;;7269636;32;20193;-55
2023/08/15 11:01:23;;;;;;;6.80;1.65;;;27.10;99.90;;;;;;7263917;32;20131;-55
2023/08/15 11:05:25;;;;;;;5.47;1.23;;;26.90;99.90;;;;;;7264585;32;20195;-55
2023/08/15 11:09:30;;;;;;;4.37;1.30;;;26.80;99.90;;;;;;7268354;32;20124;-55
2023/08/15 11:13:37;;;;;;;7.22;1.45;;;26.50;99.90;;;;;;7264262;32;20282;-55
2023/08/15 11:17:39;;;;;;;3.80;1.30;;;26.30;99.90;;;;;;7267941;32;20100;-55
2023/08/15 11:21:40;;;;;;;4.40;1.10;;;26.10;99.90;;;;;;7267858;32;20227;-55
2023/08/15 11:25:42;;;;;;;3.45;1.12;;;25.70;99.90;;;;;;7265334;32;20343;-55
2023/08/15 11:29:56;;;;;;;4.82;1.42;;;25.70;99.90;;;;;;7264332;32;20209;-55
2023/08/15 11:34:00;;;;;;;4.85;1.42;;;25.40;99.90;;;;;;7267654;32;20241;-55
2023/08/15 11:38:02;;;;;;;5.30;1.62;;;25.20;99.90;;;;;;7267691;32;20581;-56
2023/08/15 11:42:04;;;;;;;4.70;1.50;;;25.20;99.90;;;;;;7273326;32;20633;-56
2023/08/15 11:46:06;;;;;;;4.97;1.67;;;25.30;99.90;;;;;;7271889;32;20205;-55
2023/08/15 11:50:09;;;;;;;6.85;1.37;;;25.30;99.90;;;;;;7277634;32;20100;-55
2023/08/15 11:54:11;;;;;;;3.30;1.50;;;25.40;99.90;;;;;;7268539;32;20112;-55
2023/08/15 11:58:30;;;;;;;4.85;1.30;;;25.40;99.90;;;;;;7280126;32;20169;-55
2023/08/15 12:02:34;;;;;;;4.55;1.42;;;25.40;99.90;;;;;;7276750;32;20918;-55
2023/08/15 12:06:36;;;;;;;5.03;1.37;;;25.40;99.90;;;;;;7270523;32;20116;-55
2023/08/15 12:10:38;;;;;;;3.08;1.40;;;25.00;99.90;;;;;;7272109;32;20141;-55
2023/08/15 12:14:43;;;;;;;3.20;1.40;;;24.90;99.90;;;;;;7270136;32;20108;-55
2023/08/15 12:18:52;;;;;;;6.97;1.70;;;25.00;99.90;;;;;;7269554;32;20096;-55
2023/08/15 12:22:53;;;;;;;5.72;1.90;;;24.70;99.90;;;;;;7267874;32;20709;-55
2023/08/15 12:26:55;;;;;;;6.40;1.25;;;25.10;99.90;;;;;;7272222;32;20105;-55
2023/08/15 12:30:57;;;;;;;4.18;1.40;;;25.00;99.90;;;;;;7270042;32;20131;-57
2023/08/15 12:34:59;;;;;;;3.12;1.10;;;24.70;99.90;;;;;;7270710;32;20337;-58
2023/08/15 12:39:01;;;;;;;4.53;1.37;;;24.80;99.90;;;;;;7271494;32;20366;-55
2023/08/15 12:43:02;;;;;;;4.50;1.20;;;24.60;99.90;;;;;;7274006;32;20134;-55
2023/08/15 12:47:04;;;;;;;4.53;1.37;;;24.40;99.90;;;;;;7272238;32;20203;-55
2023/08/15 12:51:06;;;;;;;4.72;1.27;;;24.30;99.90;;;;;;7267685;32;20100;-55
2023/08/15 12:55:08;;;;;;;4.85;1.45;;;24.40;99.90;;;;;;7273220;32;20221;-56
2023/08/15 12:59:10;;;;;;;3.53;1.30;;;24.40;99.90;;;;;;7265685;32;20101;-56
2023/08/15 13:03:11;;;;;;;4.70;1.50;;;24.50;99.90;;;;;;7274157;32;20093;-55
2023/08/15 13:07:13;;;;;;;4.12;1.25;;;24.70;99.90;;;;;;7271789;32;20179;-56
2023/08/15 13:11:15;;;;;;;2.17;1.05;;;24.80;99.90;;;;;;7273134;32;20171;-55
2023/08/15 13:15:17;;;;;;;2.78;1.08;;;25.00;99.90;;;;;;7280681;32;20104;-55
2023/08/15 13:19:19;;;;;;;5.43;1.40;;;25.10;99.90;;;;;;7281330;32;20519;-55
2023/08/15 13:23:21;;;;;;;2.53;1.02;;;25.20;99.90;;;;;;7281556;32;20538;-56
2023/08/15 13:27:23;;;;;;;3.83;1.08;;;25.20;99.90;;;;;;7279166;32;20192;-55
2023/08/15 13:31:25;;;;;;;5.43;1.35;;;25.20;99.90;;;;;;7279417;32;20208;-57
2023/08/15 13:35:27;;;;;;;3.90;1.58;;;25.20;99.90;;;;;;7272796;32;20113;-55
2023/08/15 13:39:29;;;;;;;4.07;1.50;;;25.10;99.90;;;;;;7278432;32;20309;-55
2023/08/15 13:43:33;;;;;;;5.18;1.70;;;25.10;99.90;;;;;;7272010;32;20101;-57
2023/08/15 13:47:37;;;;;;;4.68;1.52;;;25.10;99.90;;;;;;7279065;32;20234;-55
2023/08/15 13:51:38;;;;;;;3.95;1.42;;;25.10;99.90;;;;;;7280338;32;20112;-56
2023/08/15 13:55:43;;;;;;;3.72;1.40;;;25.10;99.90;;;;;;7276883;32;20112;-55
2023/08/15 13:59:45;;;;;;;5.53;1.52;;;25.00;99.90;;;;;;7265801;32;20135;-55
2023/08/15 14:03:47;;;;;;;4.20;1.20;;;25.00;99.90;;;;;;7267003;32;20574;-56
2023/08/15 14:07:49;;;;;;;3.87;1.45;;;25.00;99.90;;;;;;7269380;32;20549;-56
2023/08/15 14:11:51;;;;;;;5.50;1.70;;;25.00;99.90;;;;;;7271032;32;20971;-55
2023/08/15 14:15:52;;;;;;;5.18;1.80;;;25.10;99.90;;;;;;7271881;32;20240;-56
2023/08/15 14:19:54;;;;;;;4.00;1.70;;;25.00;99.90;;;;;;7265557;32;20100;-56
2023/08/15 14:23:56;;;;;;;5.60;1.60;;;25.20;99.90;;;;;;7269964;32;20132;-57
2023/08/15 14:27:59;;;;;;;3.83;1.62;;;25.20;99.90;;;;;;7268813;32;20590;-56
2023/08/15 14:32:01;;;;;;;7.25;1.85;;;25.30;99.90;;;;;;7267468;32;20175;-56
2023/08/15 14:36:04;;;;;;;4.55;1.60;;;25.40;99.90;;;;;;7267648;32;20758;-56
2023/08/15 14:40:07;;;;;;;6.00;1.58;;;25.80;99.90;;;;;;7268119;32;20288;-56
2023/08/15 14:44:08;;;;;;;8.05;1.73;;;26.30;99.90;;;;;;7269578;32;20487;-56
2023/08/15 14:48:10;;;;;;;4.20;1.80;;;26.30;99.90;;;;;;7271735;32;20566;-56
2023/08/15 14:52:12;;;;;;;4.37;1.48;;;26.30;99.90;;;;;;7273470;32;20184;-56
2023/08/15 14:56:14;;;;;;;6.82;1.87;;;26.10;99.90;;;;;;7272715;32;20293;-56
2023/08/15 15:00:18;;;;;;;4.20;1.90;;;26.00;99.90;;;;;;7274511;32;20092;-56
2023/08/15 15:04:19;;;;;;;4.93;1.83;;;26.10;99.90;;;;;;7275108;32;20240;-58
2023/08/15 15:08:21;;;;;;;4.32;1.90;;;26.00;99.90;;;;;;7269536;32;20136;-56
2023/08/15 15:12:28;;;;;;;5.53;2.00;;;25.90;99.90;;;;;;7267567;32;20193;-57
2023/08/15 15:16:30;;;;;;;5.55;1.55;;;25.70;99.90;;;;;;7268369;32;20183;-56
2023/08/15 15:20:32;;;;;;;6.22;1.90;;;25.60;99.90;;;;;;7267445;32;20760;-57
2023/08/15 15:24:34;;;;;;;4.55;1.85;;;25.40;99.90;;;;;;7269995;32;20183;-58
2023/08/15 15:28:35;;;;;;;3.35;1.60;;;25.30;99.90;;;;;;7268161;32;20233;-56
2023/08/15 15:32:37;;;;;;;6.65;2.05;;;25.30;99.90;;;;;;7274693;32;20135;-57
2023/08/15 15:36:39;;;;;;;8.10;2.35;;;25.30;99.90;;;;;;7265959;32;20504;-57
2023/08/15 15:40:41;;;;;;;6.18;2.22;;;25.00;99.90;;;;;;7267062;32;20755;-59
2023/08/15 15:44:43;;;;;;;6.72;1.85;;;25.20;99.90;;;;;;7266997;32;20101;-58
2023/08/15 15:48:45;;;;;;;5.15;2.00;;;25.00;99.90;;;;;;7267349;32;20203;-59
2023/08/15 15:52:47;;;;;;;5.20;1.75;;;25.30;99.90;;;;;;7263118;32;20211;-57
2023/08/15 15:56:49;;;;;;;8.55;1.95;;;25.50;99.90;;;;;;7262006;32;20184;-58
2023/08/15 16:00:53;;;;;;;4.68;2.10;;;25.60;99.90;;;;;;7263853;32;20183;-57
2023/08/15 16:04:55;;;;;;;6.22;2.00;;;25.20;99.90;;;;;;7272547;32;20109;-57
2023/08/15 16:08:57;;;;;;;4.97;1.98;;;24.70;99.90;;;;;;7273076;32;20100;-57
2023/08/15 16:12:59;;;;;;;6.53;2.60;;;24.80;99.90;;;;;;7278695;32;20191;-58
2023/08/15 16:17:00;;;;;;;6.65;1.73;;;25.00;99.90;;;;;;7267491;32;20111;-59
2023/08/15 16:21:02;;;;;;;4.90;2.08;;;24.90;99.90;;;;;;7269258;32;20127;-58
2023/08/15 16:25:04;;;;;;;4.78;2.10;;;24.70;99.90;;;;;;7264443;32;20620;-57
2023/08/15 16:29:06;;;;;;;5.45;2.35;;;24.70;99.90;;;;;;7269976;32;20104;-56
2023/08/15 16:33:08;;;;;;;4.30;2.25;;;24.50;99.90;;;;;;7275152;32;20104;-57
2023/08/15 16:37:10;;;;;;;4.75;2.25;;;24.50;99.90;;;;;;7267402;32;20264;-57
2023/08/15 16:41:12;;;;;;;5.18;1.95;;;24.30;99.90;;;;;;7267360;32;20107;-57
2023/08/15 16:45:13;;;;;;;5.70;2.12;;;24.20;99.90;;;;;;7274822;32;20217;-57
2023/08/15 16:49:15;;;;;;;6.68;2.47;;;24.10;99.90;;;;;;7270350;32;20132;-57
2023/08/15 16:53:17;;;;;;;4.12;2.08;;;24.10;99.90;;;;;;7265324;32;20491;-58
2023/08/15 16:57:21;;;;;;;7.43;2.42;;;23.90;99.90;;;;;;7269295;32;20592;-57
2023/08/15 17:01:23;;;;;;;4.80;2.47;;;23.90;99.90;;;;;;7272087;32;20096;-57
2023/08/15 17:05:25;;;;;;;4.65;1.98;;;23.70;99.90;;;;;;7271640;32;20112;-57
2023/08/15 17:09:27;;;;;;;8.45;2.53;;;23.50;99.90;;;;;;7266374;32;20710;-58
2023/08/15 17:13:29;;;;;;;7.85;2.72;;;23.30;99.90;;;;;;7266044;32;20187;-57
2023/08/15 17:17:31;;;;;;;8.25;2.60;;;23.40;99.90;;;;;;7270022;32;20564;-58
2023/08/15 17:21:33;;;;;;;4.68;2.30;;;23.20;99.90;;;;;;7271773;32;20120;-58
2023/08/15 17:25:35;;;;;;;5.00;2.08;;;23.20;99.90;;;;;;7263252;32;20241;-58
2023/08/15 17:29:37;;;;;;;10.02;2.17;;;23.30;99.90;;;;;;7264290;32;20108;-57
2023/08/15 17:33:39;;;;;;;5.68;2.28;;;23.30;99.90;;;;;;7268452;32;20185;-57
2023/08/15 17:37:40;;;;;;;10.00;1.92;;;23.30;99.90;;;;;;7259983;32;20101;-57
2023/08/15 17:41:42;;;;;;;7.93;2.22;;;23.50;99.90;;;;;;7269889;32;20564;-58
2023/08/15 17:45:46;;;;;;;4.55;2.42;;;23.50;99.90;;;;;;7269564;32;20183;-55
2023/08/15 17:49:48;;;;;;;6.95;2.37;;;23.50;99.90;;;;;;7267944;32;20124;-57
2023/08/15 17:53:50;;;;;;;6.28;2.03;;;23.60;99.90;;;;;;7263341;32;20121;-57
2023/08/15 17:57:52;;;;;;;6.25;2.25;;;23.50;99.90;;;;;;7264467;32;20097;-57
2023/08/15 18:01:53;;;;;;;7.97;2.22;;;23.40;99.90;;;;;;7268436;32;20587;-57
2023/08/15 18:05:55;;;;;;;6.45;2.28;;;23.20;99.90;;;;;;7271042;32;20107;-55
2023/08/15 18:09:57;;;;;;;5.55;2.12;;;23.10;99.90;;;;;;7270456;32;20423;-55
2023/08/15 18:14:00;;;;;;;6.70;2.28;;;22.90;99.90;;;;;;7265456;32;20120;-55
2023/08/15 18:18:02;;;;;;;5.15;2.55;;;22.70;99.90;;;;;;7266521;32;20100;-55
2023/08/15 18:22:05;;;;;;;6.32;2.20;;;22.50;99.90;;;;;;7266615;32;20526;-56
2023/08/15 18:26:09;;;;;;;6.97;2.80;;;22.40;99.90;;;;;;7269650;32;20110;-56
2023/08/15 18:30:12;;;;;;;6.72;2.70;;;22.30;99.90;;;;;;7265585;32;20215;-55
2023/08/15 18:34:14;;;;;;;4.62;2.33;;;22.10;99.90;;;;;;7270795;32;21940;-56
2023/08/15 18:38:15;;;;;;;7.90;2.85;;;21.90;99.90;;;;;;7267583;32;20233;-56
2023/08/15 18:42:17;;;;;;;9.65;2.53;;;21.70;99.90;;;;;;7264627;32;20128;-56
2023/08/15 18:46:19;;;;;;;9.52;3.22;;;21.70;99.90;;;;;;7269886;32;20631;-56
2023/08/15 18:50:21;;;;;;;8.95;3.10;;;21.40;99.90;;;;;;7270951;32;20140;-55
2023/08/15 18:54:23;;;;;;;12.90;3.12;;;21.30;99.90;;;;;;7276546;32;20146;-55
2023/08/15 18:58:24;;;;;;;7.07;2.65;;;21.20;99.90;;;;;;7263294;32;20104;-55
2023/08/15 19:02:26;;;;;;;7.55;2.75;;;21.00;99.90;;;;;;7264678;32;20104;-55
2023/08/15 19:06:28;;;;;;;4.93;2.50;;;20.80;99.90;;;;;;7268763;32;20108;-55
2023/08/15 19:10:30;;;;;;;7.93;2.78;;;20.80;99.90;;;;;;7268848;32;20203;-54
2023/08/15 19:14:31;;;;;;;6.97;2.90;;;20.60;99.90;;;;;;7270745;32;20162;-54
2023/08/15 19:18:33;;;;;;;6.65;2.87;;;20.50;99.90;;;;;;7270905;32;20228;-55
2023/08/15 19:22:35;;;;;;;5.65;2.62;;;20.50;99.90;;;;;;7269952;32;20247;-55
2023/08/15 19:26:37;;;;;;;12.07;3.15;;;20.50;99.90;;;;;;7273524;32;20100;-54
2023/08/15 19:30:41;;;;;;;7.37;3.33;;;20.40;99.90;;;;;;7271339;32;20100;-54
2023/08/15 19:34:47;;;;;;;8.45;2.97;;;20.40;99.90;;;;;;7268756;32;20123;-54
2023/08/15 19:38:48;;;;;;;9.88;3.35;;;20.30;99.90;;;;;;7271948;32;20114;-54
2023/08/15 19:42:50;;;;;;;8.23;2.80;;;20.50;99.90;;;;;;7265194;32;20155;-54
2023/08/15 19:46:52;;;;;;;6.70;2.92;;;20.60;99.90;;;;;;7263301;32;20227;-54
2023/08/15 19:50:53;;;;;;;8.32;3.05;;;20.40;99.90;;;;;;7267567;32;20361;-54
2023/08/15 19:54:55;;;;;;;6.30;2.97;;;20.40;99.90;;;;;;7269012;32;20322;-55
2023/08/15 19:58:57;;;;;;;8.35;3.20;;;20.30;99.90;;;;;;7267679;32;20100;-54
2023/08/15 20:02:59;;;;;;;10.18;3.20;;;20.40;99.90;;;;;;7269307;32;20131;-54
2023/08/15 20:07:01;;;;;;;10.00;3.30;;;20.30;99.90;;;;;;7269929;32;20788;-54
2023/08/15 20:11:03;;;;;;;7.10;3.40;;;20.30;99.90;;;;;;7275458;32;20092;-56
2023/08/15 20:15:07;;;;;;;7.22;3.50;;;20.20;99.90;;;;;;7279844;32;20523;-54
2023/08/15 20:19:10;;;;;;;8.15;3.65;;;20.20;99.90;;;;;;7275579;32;20232;-54
2023/08/15 20:23:11;;;;;;;8.68;3.62;;;20.20;99.90;;;;;;7274797;32;20273;-55
2023/08/15 20:27:14;;;;;;;10.82;3.97;;;20.10;99.90;;;;;;7280021;32;20214;-55
2023/08/15 20:31:16;;;;;;;5.07;3.40;;;20.00;99.90;;;;;;7274957;32;20131;-56
2023/08/15 20:35:18;;;;;;;9.15;3.67;;;20.10;99.90;;;;;;7287678;32;20476;-54
2023/08/15 20:39:20;;;;;;;7.57;3.78;;;20.00;99.90;;;;;;7287462;32;22015;-54
2023/08/15 20:43:21;;;;;;;9.13;3.40;;;19.90;99.90;;;;;;7272387;32;20734;-54
2023/08/15 20:47:23;;;;;;;7.05;3.47;;;19.90;99.90;;;;;;7273711;32;20207;-54
2023/08/15 20:51:25;;;;;;;8.13;3.03;;;19.80;99.90;;;;;;7271376;32;20105;-55
2023/08/15 20:55:27;;;;;;;7.07;3.20;;;19.70;99.90;;;;;;7272054;32;20536;-54
2023/08/15 20:59:29;;;;;;;7.07;3.87;;;19.60;99.90;;;;;;7266891;32;20549;-54